HLF6TJ EKBI-EDDP
Flight info
| Callsign | HLF6TJ |
|---|---|
| Flight time | 0h 53m |
| Altitude | 31000 |
| Route | ALS M852 EKERN DCT NUSGU Z998 PITEN DCT SUVAL M736 MAG/N0483F300 Z20 KENIG T959 KOJEC KOJEC1R |
| Aircraft | B77L/H-SDE1E2E3FGHIJ2J3J4J5M1RWXY/LB1D1 |
Departure
| Time | 2026-05-07 19:03 |
|---|---|
| Airport | Billund Airport (EKBI) |
Arrival
| Time | 2026-05-07 19:56 |
|---|---|
| Airport | Leipzig/Halle Airport (EDDP) |
| Time | Latitude | Longitude | Altitude | Speed | Heading |
|---|---|---|---|---|---|
| 2026-05-07 18:29 | 55.73763 | 9.14016 | 220 ft | 0 kts | 179° |
| 2026-05-07 18:49 | 55.73769 | 9.14016 | 220 ft | 4 kts | 178° |
| 2026-05-07 18:49 | 55.73795 | 9.14012 | 221 ft | 4 kts | 168° |
| 2026-05-07 18:49 | 55.73820 | 9.13999 | 227 ft | 4 kts | 147° |
| 2026-05-07 18:50 | 55.73835 | 9.13974 | 222 ft | 4 kts | 104° |
| 2026-05-07 18:50 | 55.73836 | 9.13960 | 221 ft | 0 kts | 89° |
| 2026-05-07 18:54 | 55.73837 | 9.14019 | 220 ft | 11 kts | 88° |
| 2026-05-07 18:54 | 55.73844 | 9.14153 | 220 ft | 11 kts | 73° |
| 2026-05-07 18:54 | 55.73883 | 9.14285 | 225 ft | 14 kts | 54° |
| 2026-05-07 18:55 | 55.73950 | 9.14417 | 229 ft | 14 kts | 46° |
| 2026-05-07 18:55 | 55.74034 | 9.14496 | 224 ft | 14 kts | 1° |
| 2026-05-07 18:55 | 55.74134 | 9.14489 | 225 ft | 14 kts | 0° |
| 2026-05-07 18:55 | 55.74184 | 9.14619 | 220 ft | 14 kts | 88° |
| 2026-05-07 18:56 | 55.74188 | 9.14796 | 220 ft | 14 kts | 86° |
| 2026-05-07 18:56 | 55.74194 | 9.14971 | 224 ft | 14 kts | 86° |
| 2026-05-07 18:56 | 55.74199 | 9.15150 | 220 ft | 14 kts | 88° |
| 2026-05-07 18:56 | 55.74205 | 9.15325 | 220 ft | 15 kts | 86° |
| 2026-05-07 18:57 | 55.74211 | 9.15523 | 220 ft | 18 kts | 87° |
| 2026-05-07 18:57 | 55.74218 | 9.15755 | 226 ft | 19 kts | 87° |
| 2026-05-07 18:57 | 55.74225 | 9.15995 | 224 ft | 19 kts | 86° |
| 2026-05-07 18:57 | 55.74232 | 9.16234 | 223 ft | 19 kts | 87° |
| 2026-05-07 18:58 | 55.74240 | 9.16471 | 220 ft | 19 kts | 86° |
| 2026-05-07 18:58 | 55.74248 | 9.16709 | 220 ft | 19 kts | 87° |
| 2026-05-07 18:58 | 55.74250 | 9.16857 | 227 ft | 8 kts | 99° |
| 2026-05-07 18:58 | 55.74209 | 9.16905 | 225 ft | 8 kts | 177° |
| 2026-05-07 18:59 | 55.74196 | 9.16907 | 226 ft | 0 kts | 176° |
| 2026-05-07 19:00 | 55.74194 | 9.16907 | 226 ft | 2 kts | 176° |
| 2026-05-07 19:00 | 55.74130 | 9.16913 | 229 ft | 12 kts | 177° |
| 2026-05-07 19:01 | 55.74088 | 9.16897 | 229 ft | 6 kts | 229° |
| 2026-05-07 19:01 | 55.74085 | 9.16870 | 228 ft | 0 kts | 266° |
| 2026-05-07 19:02 | 55.74085 | 9.16869 | 228 ft | 0 kts | 266° |
| 2026-05-07 19:02 | 55.74083 | 9.16774 | 226 ft | 33 kts | 267° |
| 2026-05-07 19:02 | 55.74066 | 9.16241 | 226 ft | 97 kts | 266° |
| 2026-05-07 19:02 | 55.74013 | 9.14515 | 246 ft | 177 kts | 266° |
| 2026-05-07 19:03 | 55.73937 | 9.12251 | 1107 ft | 177 kts | 269° |
| 2026-05-07 19:03 | 55.74280 | 9.10134 | 2069 ft | 189 kts | 306° |
| 2026-05-07 19:03 | 55.75222 | 9.08293 | 2366 ft | 215 kts | 311° |
| 2026-05-07 19:03 | 55.76278 | 9.06196 | 2738 ft | 238 kts | 309° |
| 2026-05-07 19:04 | 55.77386 | 9.03912 | 3397 ft | 251 kts | 309° |
| 2026-05-07 19:04 | 55.78536 | 9.01498 | 4150 ft | 260 kts | 309° |
| 2026-05-07 19:04 | 55.79504 | 8.98783 | 4828 ft | 265 kts | 283° |
| 2026-05-07 19:04 | 55.79527 | 8.95551 | 5653 ft | 265 kts | 251° |
| 2026-05-07 19:05 | 55.78628 | 8.92732 | 6546 ft | 265 kts | 224° |
| 2026-05-07 19:05 | 55.77087 | 8.90957 | 7330 ft | 268 kts | 197° |
| 2026-05-07 19:05 | 55.75238 | 8.90645 | 8109 ft | 272 kts | 169° |
| 2026-05-07 19:05 | 55.73475 | 8.91877 | 8921 ft | 275 kts | 147° |
| 2026-05-07 19:06 | 55.71901 | 8.93835 | 9730 ft | 279 kts | 143° |
| 2026-05-07 19:06 | 55.68709 | 8.98141 | 10798 ft | 308 kts | 142° |
| 2026-05-07 19:06 | 55.66938 | 9.00545 | 11018 ft | 333 kts | 142° |
| 2026-05-07 19:07 | 55.65020 | 9.03133 | 11230 ft | 358 kts | 143° |
| 2026-05-07 19:07 | 55.63005 | 9.05831 | 11841 ft | 369 kts | 143° |
| 2026-05-07 19:07 | 55.60927 | 9.08595 | 12588 ft | 377 kts | 143° |
| 2026-05-07 19:07 | 55.58806 | 9.11401 | 13392 ft | 383 kts | 143° |
| 2026-05-07 19:08 | 55.56658 | 9.14232 | 14184 ft | 389 kts | 143° |
| 2026-05-07 19:08 | 55.54474 | 9.17102 | 14905 ft | 394 kts | 143° |
| 2026-05-07 19:08 | 55.52264 | 9.19999 | 15668 ft | 398 kts | 144° |
| 2026-05-07 19:08 | 55.50025 | 9.22928 | 16414 ft | 402 kts | 144° |
| 2026-05-07 19:09 | 55.47766 | 9.25879 | 17150 ft | 407 kts | 144° |
| 2026-05-07 19:09 | 55.45480 | 9.28861 | 17859 ft | 412 kts | 144° |
| 2026-05-07 19:09 | 55.43163 | 9.31879 | 18546 ft | 416 kts | 144° |
| 2026-05-07 19:09 | 55.40819 | 9.34927 | 19170 ft | 421 kts | 144° |
| 2026-05-07 19:10 | 55.38455 | 9.37997 | 19803 ft | 424 kts | 144° |
| 2026-05-07 19:10 | 55.36069 | 9.41091 | 20430 ft | 428 kts | 144° |
| 2026-05-07 19:10 | 55.33665 | 9.44204 | 21032 ft | 432 kts | 144° |
| 2026-05-07 19:10 | 55.31233 | 9.47348 | 21643 ft | 436 kts | 144° |
| 2026-05-07 19:11 | 55.28776 | 9.50520 | 22243 ft | 440 kts | 144° |
| 2026-05-07 19:11 | 55.26299 | 9.53712 | 22827 ft | 444 kts | 144° |
| 2026-05-07 19:11 | 55.23803 | 9.56924 | 23425 ft | 448 kts | 144° |
| 2026-05-07 19:11 | 55.21280 | 9.60165 | 23944 ft | 452 kts | 144° |
| 2026-05-07 19:12 | 55.18734 | 9.63430 | 24443 ft | 455 kts | 144° |
| 2026-05-07 19:12 | 55.16175 | 9.66707 | 24961 ft | 458 kts | 143° |
| 2026-05-07 19:12 | 55.13595 | 9.70006 | 25477 ft | 460 kts | 143° |
| 2026-05-07 19:12 | 55.11000 | 9.73318 | 25973 ft | 463 kts | 143° |
| 2026-05-07 19:13 | 55.08346 | 9.76700 | 26480 ft | 466 kts | 143° |
| 2026-05-07 19:13 | 55.05759 | 9.79992 | 26945 ft | 469 kts | 143° |
| 2026-05-07 19:13 | 55.03120 | 9.83344 | 27428 ft | 471 kts | 143° |
| 2026-05-07 19:13 | 55.00462 | 9.86739 | 27918 ft | 474 kts | 143° |
| 2026-05-07 19:14 | 54.97801 | 9.90143 | 28385 ft | 476 kts | 143° |
| 2026-05-07 19:14 | 54.95112 | 9.93536 | 28827 ft | 479 kts | 143° |
| 2026-05-07 19:14 | 54.92287 | 9.96587 | 29119 ft | 482 kts | 156° |
| 2026-05-07 19:14 | 54.89051 | 9.98161 | 29383 ft | 488 kts | 173° |
| 2026-05-07 19:15 | 54.85664 | 9.98094 | 29783 ft | 490 kts | 189° |
| 2026-05-07 19:15 | 54.82341 | 9.96850 | 30191 ft | 489 kts | 192° |
| 2026-05-07 19:15 | 54.79008 | 9.95590 | 30593 ft | 489 kts | 191° |
| 2026-05-07 19:15 | 54.75677 | 9.94450 | 31023 ft | 489 kts | 189° |
| 2026-05-07 19:16 | 54.72319 | 9.93365 | 31160 ft | 492 kts | 189° |
| 2026-05-07 19:16 | 54.68954 | 9.92288 | 31146 ft | 492 kts | 189° |
| 2026-05-07 19:16 | 54.62246 | 9.90118 | 31130 ft | 487 kts | 189° |
| 2026-05-07 19:17 | 54.55591 | 9.88010 | 31133 ft | 483 kts | 187° |
| 2026-05-07 19:17 | 54.52250 | 9.87850 | 31153 ft | 481 kts | 171° |
| 2026-05-07 19:17 | 54.49014 | 9.89204 | 31167 ft | 478 kts | 157° |
| 2026-05-07 19:18 | 54.46065 | 9.91802 | 31147 ft | 476 kts | 142° |
| 2026-05-07 19:18 | 54.43448 | 9.95229 | 31174 ft | 474 kts | 141° |
| 2026-05-07 19:18 | 54.38176 | 10.02141 | 31168 ft | 479 kts | 141° |
| 2026-05-07 19:19 | 54.32819 | 10.08998 | 31159 ft | 482 kts | 142° |
| 2026-05-07 19:19 | 54.27406 | 10.15833 | 31158 ft | 483 kts | 142° |
| 2026-05-07 19:20 | 54.21986 | 10.22641 | 31150 ft | 483 kts | 142° |
| 2026-05-07 19:20 | 54.16576 | 10.29416 | 31147 ft | 481 kts | 143° |
| 2026-05-07 19:21 | 54.11188 | 10.36147 | 31142 ft | 480 kts | 143° |
| 2026-05-07 19:21 | 54.05803 | 10.42852 | 31133 ft | 479 kts | 143° |
| 2026-05-07 19:22 | 54.00422 | 10.49531 | 31132 ft | 479 kts | 143° |
| 2026-05-07 19:22 | 53.95028 | 10.56204 | 31133 ft | 479 kts | 143° |
| 2026-05-07 19:23 | 53.89633 | 10.62856 | 31131 ft | 480 kts | 144° |
| 2026-05-07 19:23 | 53.84217 | 10.69513 | 31131 ft | 481 kts | 144° |
| 2026-05-07 19:24 | 53.78791 | 10.76159 | 31131 ft | 482 kts | 144° |
| 2026-05-07 19:24 | 53.73352 | 10.82801 | 31134 ft | 483 kts | 144° |
| 2026-05-07 19:25 | 53.67900 | 10.89436 | 31128 ft | 483 kts | 144° |
| 2026-05-07 19:25 | 53.62443 | 10.96056 | 31125 ft | 483 kts | 144° |
| 2026-05-07 19:26 | 53.56980 | 11.02662 | 31125 ft | 483 kts | 144° |
| 2026-05-07 19:26 | 53.51519 | 11.09244 | 31121 ft | 483 kts | 144° |
| 2026-05-07 19:27 | 53.46046 | 11.15819 | 31117 ft | 483 kts | 144° |
| 2026-05-07 19:27 | 53.40574 | 11.22372 | 31117 ft | 483 kts | 144° |
| 2026-05-07 19:28 | 53.35095 | 11.28914 | 31118 ft | 483 kts | 144° |
| 2026-05-07 19:28 | 53.29614 | 11.35439 | 31113 ft | 484 kts | 144° |
| 2026-05-07 19:29 | 53.24085 | 11.41743 | 31108 ft | 482 kts | 154° |
| 2026-05-07 19:29 | 53.20937 | 11.43736 | 30961 ft | 486 kts | 166° |
| 2026-05-07 19:29 | 53.17613 | 11.44713 | 30684 ft | 485 kts | 175° |
| 2026-05-07 19:30 | 53.14265 | 11.44972 | 30306 ft | 480 kts | 178° |
| 2026-05-07 19:30 | 53.10936 | 11.45208 | 29892 ft | 476 kts | 178° |
| 2026-05-07 19:30 | 53.07652 | 11.45472 | 29456 ft | 470 kts | 177° |
| 2026-05-07 19:30 | 53.04398 | 11.45754 | 29030 ft | 466 kts | 177° |
| 2026-05-07 19:31 | 53.01176 | 11.46052 | 28608 ft | 462 kts | 177° |
| 2026-05-07 19:31 | 52.97971 | 11.46362 | 28192 ft | 459 kts | 177° |
| 2026-05-07 19:31 | 52.94795 | 11.46675 | 27784 ft | 456 kts | 177° |
| 2026-05-07 19:31 | 52.91635 | 11.46990 | 27331 ft | 454 kts | 177° |
| 2026-05-07 19:32 | 52.88478 | 11.47304 | 26755 ft | 455 kts | 177° |
| 2026-05-07 19:32 | 52.85316 | 11.47619 | 26193 ft | 456 kts | 177° |
| 2026-05-07 19:32 | 52.82161 | 11.47931 | 25642 ft | 452 kts | 177° |
| 2026-05-07 19:32 | 52.79030 | 11.48241 | 25098 ft | 448 kts | 177° |
| 2026-05-07 19:33 | 52.75933 | 11.48546 | 24579 ft | 444 kts | 177° |
| 2026-05-07 19:33 | 52.72860 | 11.48848 | 24099 ft | 440 kts | 177° |
| 2026-05-07 19:33 | 52.69820 | 11.49147 | 23615 ft | 435 kts | 177° |
| 2026-05-07 19:33 | 52.66817 | 11.49441 | 23052 ft | 431 kts | 177° |
| 2026-05-07 19:34 | 52.63832 | 11.49733 | 22517 ft | 428 kts | 177° |
| 2026-05-07 19:34 | 52.60873 | 11.50022 | 21964 ft | 424 kts | 177° |
| 2026-05-07 19:34 | 52.57940 | 11.50308 | 21445 ft | 421 kts | 177° |
| 2026-05-07 19:34 | 52.55029 | 11.50592 | 20932 ft | 418 kts | 177° |
| 2026-05-07 19:35 | 52.52141 | 11.50873 | 20422 ft | 415 kts | 178° |
| 2026-05-07 19:35 | 52.49270 | 11.51152 | 19924 ft | 412 kts | 178° |
| 2026-05-07 19:35 | 52.46424 | 11.51429 | 19435 ft | 409 kts | 178° |
| 2026-05-07 19:35 | 52.43591 | 11.51703 | 18954 ft | 406 kts | 178° |
| 2026-05-07 19:36 | 52.40784 | 11.51975 | 18471 ft | 403 kts | 178° |
| 2026-05-07 19:36 | 52.37997 | 11.52244 | 17933 ft | 400 kts | 178° |
| 2026-05-07 19:36 | 52.35228 | 11.52511 | 17401 ft | 397 kts | 178° |
| 2026-05-07 19:36 | 52.32486 | 11.52775 | 16875 ft | 394 kts | 177° |
| 2026-05-07 19:37 | 52.29758 | 11.53038 | 16357 ft | 391 kts | 177° |
| 2026-05-07 19:37 | 52.27045 | 11.53299 | 15846 ft | 388 kts | 177° |
| 2026-05-07 19:37 | 52.24327 | 11.53562 | 15338 ft | 386 kts | 177° |
| 2026-05-07 19:37 | 52.21653 | 11.53819 | 14835 ft | 383 kts | 176° |
| 2026-05-07 19:38 | 52.19004 | 11.54073 | 14359 ft | 380 kts | 176° |
| 2026-05-07 19:38 | 52.16374 | 11.54324 | 13880 ft | 378 kts | 176° |
| 2026-05-07 19:38 | 52.13758 | 11.54573 | 13354 ft | 375 kts | 176° |
| 2026-05-07 19:38 | 52.11166 | 11.54820 | 13128 ft | 370 kts | 176° |
| 2026-05-07 19:39 | 52.08623 | 11.55127 | 13092 ft | 367 kts | 171° |
| 2026-05-07 19:39 | 52.06109 | 11.55933 | 13105 ft | 368 kts | 166° |
| 2026-05-07 19:39 | 52.03634 | 11.56943 | 13100 ft | 366 kts | 165° |
| 2026-05-07 19:39 | 52.02005 | 11.57639 | 13092 ft | 363 kts | 165° |
| 2026-05-07 19:40 | 51.98748 | 11.59040 | 13090 ft | 362 kts | 164° |
| 2026-05-07 19:40 | 51.96314 | 11.60091 | 13101 ft | 362 kts | 164° |
| 2026-05-07 19:40 | 51.93882 | 11.61141 | 13104 ft | 362 kts | 164° |
| 2026-05-07 19:40 | 51.91447 | 11.62190 | 13102 ft | 362 kts | 164° |
| 2026-05-07 19:41 | 51.89004 | 11.63240 | 13107 ft | 363 kts | 164° |
| 2026-05-07 19:41 | 51.86565 | 11.64285 | 13101 ft | 364 kts | 164° |
| 2026-05-07 19:41 | 51.84943 | 11.64978 | 13103 ft | 364 kts | 164° |
| 2026-05-07 19:41 | 51.82487 | 11.66025 | 13101 ft | 365 kts | 164° |
| 2026-05-07 19:42 | 51.80035 | 11.67066 | 13103 ft | 365 kts | 164° |
| 2026-05-07 19:42 | 51.77578 | 11.68104 | 13107 ft | 366 kts | 164° |
| 2026-05-07 19:42 | 51.75113 | 11.69145 | 13094 ft | 366 kts | 164° |
| 2026-05-07 19:42 | 51.72650 | 11.70185 | 13107 ft | 367 kts | 164° |
| 2026-05-07 19:43 | 51.70173 | 11.71231 | 13096 ft | 367 kts | 164° |
| 2026-05-07 19:43 | 51.67708 | 11.72272 | 13105 ft | 367 kts | 164° |
| 2026-05-07 19:43 | 51.65240 | 11.73315 | 13068 ft | 366 kts | 164° |
| 2026-05-07 19:43 | 51.62799 | 11.74482 | 12690 ft | 367 kts | 156° |
| 2026-05-07 19:44 | 51.60585 | 11.76498 | 12238 ft | 365 kts | 141° |
| 2026-05-07 19:44 | 51.58809 | 11.79353 | 11808 ft | 359 kts | 125° |
| 2026-05-07 19:44 | 51.57645 | 11.82783 | 11347 ft | 340 kts | 107° |
| 2026-05-07 19:44 | 51.57130 | 11.86366 | 10909 ft | 320 kts | 97° |
| 2026-05-07 19:45 | 51.56842 | 11.89820 | 10456 ft | 302 kts | 95° |
| 2026-05-07 19:45 | 51.56612 | 11.93106 | 10041 ft | 291 kts | 95° |
| 2026-05-07 19:45 | 51.56382 | 11.96301 | 9593 ft | 285 kts | 99° |
| 2026-05-07 19:45 | 51.55645 | 11.99229 | 9099 ft | 286 kts | 126° |
| 2026-05-07 19:46 | 51.54156 | 12.01312 | 8700 ft | 286 kts | 153° |
| 2026-05-07 19:46 | 51.52252 | 12.02102 | 8325 ft | 286 kts | 179° |
| 2026-05-07 19:46 | 51.50325 | 12.01458 | 7915 ft | 285 kts | 206° |
| 2026-05-07 19:46 | 51.48783 | 11.99514 | 7523 ft | 283 kts | 233° |
| 2026-05-07 19:47 | 51.47947 | 11.96719 | 7108 ft | 275 kts | 257° |
| 2026-05-07 19:47 | 51.47616 | 11.93773 | 6697 ft | 263 kts | 263° |
| 2026-05-07 19:47 | 51.47395 | 11.90930 | 6265 ft | 252 kts | 264° |
| 2026-05-07 19:47 | 51.47196 | 11.88181 | 5824 ft | 243 kts | 264° |
| 2026-05-07 19:48 | 51.47005 | 11.85486 | 5414 ft | 243 kts | 264° |
| 2026-05-07 19:48 | 51.46819 | 11.82810 | 5046 ft | 240 kts | 264° |
| 2026-05-07 19:48 | 51.46626 | 11.80178 | 4938 ft | 237 kts | 259° |
| 2026-05-07 19:48 | 51.45940 | 11.77774 | 4660 ft | 242 kts | 227° |
| 2026-05-07 19:49 | 51.44568 | 11.76296 | 4398 ft | 239 kts | 195° |
| 2026-05-07 19:49 | 51.42938 | 11.76181 | 4106 ft | 235 kts | 163° |
| 2026-05-07 19:49 | 51.41545 | 11.77435 | 3826 ft | 230 kts | 130° |
| 2026-05-07 19:49 | 51.40828 | 11.79644 | 3530 ft | 224 kts | 96° |
| 2026-05-07 19:50 | 51.40978 | 11.82051 | 3313 ft | 214 kts | 75° |
| 2026-05-07 19:50 | 51.41295 | 11.84397 | 3155 ft | 219 kts | 81° |
| 2026-05-07 19:50 | 51.41480 | 11.86815 | 3087 ft | 223 kts | 84° |
| 2026-05-07 19:50 | 51.41610 | 11.89292 | 3034 ft | 223 kts | 85° |
| 2026-05-07 19:51 | 51.41728 | 11.91766 | 3001 ft | 223 kts | 85° |
| 2026-05-07 19:51 | 51.41841 | 11.94193 | 3023 ft | 212 kts | 85° |
| 2026-05-07 19:51 | 51.41946 | 11.96448 | 3007 ft | 193 kts | 85° |
| 2026-05-07 19:51 | 51.42040 | 11.98475 | 2962 ft | 174 kts | 85° |
| 2026-05-07 19:52 | 51.42129 | 12.00365 | 3014 ft | 168 kts | 84° |
| 2026-05-07 19:52 | 51.42218 | 12.02268 | 2896 ft | 175 kts | 85° |
| 2026-05-07 19:52 | 51.42310 | 12.04220 | 2649 ft | 175 kts | 84° |
| 2026-05-07 19:52 | 51.42400 | 12.06148 | 2411 ft | 171 kts | 84° |
| 2026-05-07 19:53 | 51.42486 | 12.08010 | 2156 ft | 162 kts | 84° |
| 2026-05-07 19:53 | 51.42568 | 12.09743 | 1941 ft | 151 kts | 84° |
| 2026-05-07 19:53 | 51.42645 | 12.11392 | 1780 ft | 144 kts | 84° |
| 2026-05-07 19:53 | 51.42716 | 12.12981 | 1532 ft | 144 kts | 84° |
| 2026-05-07 19:54 | 51.42805 | 12.14587 | 1350 ft | 145 kts | 84° |
| 2026-05-07 19:54 | 51.42873 | 12.16235 | 1114 ft | 151 kts | 84° |
| 2026-05-07 19:54 | 51.42959 | 12.17913 | 929 ft | 151 kts | 84° |
| 2026-05-07 19:54 | 51.43035 | 12.19582 | 714 ft | 150 kts | 84° |
| 2026-05-07 19:55 | 51.43112 | 12.21246 | 519 ft | 149 kts | 84° |
| 2026-05-07 19:55 | 51.43186 | 12.22849 | 435 ft | 133 kts | 88° |
| 2026-05-07 19:55 | 51.43240 | 12.24008 | 450 ft | 73 kts | 84° |
| 2026-05-07 19:55 | 51.43196 | 12.24655 | 455 ft | 51 kts | 114° |
| 2026-05-07 19:56 | 51.43091 | 12.25003 | 458 ft | 21 kts | 116° |
| 2026-05-07 19:56 | 51.43067 | 12.25077 | 457 ft | 0 kts | 117° |
| 2026-05-07 19:56 | 51.43063 | 12.25087 | 457 ft | 2 kts | 126° |
| 2026-05-07 19:56 | 51.43041 | 12.25108 | 457 ft | 5 kts | 158° |
| 2026-05-07 19:57 | 51.43002 | 12.25109 | 456 ft | 6 kts | 187° |
| 2026-05-07 19:57 | 51.42950 | 12.25091 | 454 ft | 10 kts | 195° |
| 2026-05-07 19:57 | 51.42878 | 12.25064 | 456 ft | 11 kts | 193° |
| 2026-05-07 19:57 | 51.42803 | 12.25036 | 460 ft | 13 kts | 193° |
| 2026-05-07 19:58 | 51.42679 | 12.24987 | 466 ft | 22 kts | 196° |
| 2026-05-07 19:58 | 51.42534 | 12.24928 | 471 ft | 22 kts | 194° |
| 2026-05-07 19:58 | 51.42388 | 12.24872 | 479 ft | 22 kts | 193° |
| 2026-05-07 19:58 | 51.42242 | 12.24815 | 481 ft | 22 kts | 194° |
| 2026-05-07 19:59 | 51.42096 | 12.24761 | 487 ft | 22 kts | 193° |
| 2026-05-07 19:59 | 51.41950 | 12.24706 | 488 ft | 22 kts | 193° |
| 2026-05-07 19:59 | 51.41805 | 12.24651 | 477 ft | 20 kts | 194° |
| 2026-05-07 19:59 | 51.41665 | 12.24597 | 474 ft | 18 kts | 193° |
| 2026-05-07 20:00 | 51.41551 | 12.24554 | 478 ft | 16 kts | 193° |
| 2026-05-07 20:00 | 51.41489 | 12.24530 | 475 ft | 0 kts | 193° |
| 2026-05-07 20:00 | 51.41485 | 12.24529 | 476 ft | 1 kts | 193° |
| 2026-05-07 20:01 | 51.41409 | 12.24499 | 470 ft | 20 kts | 194° |
| 2026-05-07 20:01 | 51.41269 | 12.24447 | 469 ft | 12 kts | 192° |
| 2026-05-07 20:01 | 51.41217 | 12.24428 | 468 ft | 7 kts | 193° |
| 2026-05-07 20:01 | 51.41165 | 12.24409 | 467 ft | 8 kts | 193° |
| 2026-05-07 20:02 | 51.41147 | 12.24403 | 467 ft | 2 kts | 193° |
| 2026-05-07 20:02 | 51.41146 | 12.24402 | 467 ft | 0 kts | 193° |
| 2026-05-07 20:02 | 51.41126 | 12.24400 | 466 ft | 6 kts | 176° |
| 2026-05-07 20:02 | 51.41092 | 12.24476 | 471 ft | 12 kts | 91° |
| 2026-05-07 20:03 | 51.41093 | 12.24606 | 469 ft | 12 kts | 99° |
| 2026-05-07 20:03 | 51.41024 | 12.24652 | 468 ft | 12 kts | 175° |
| 2026-05-07 20:03 | 51.40941 | 12.24665 | 468 ft | 13 kts | 171° |
| 2026-05-07 20:03 | 51.40895 | 12.24570 | 469 ft | 10 kts | 265° |
| 2026-05-07 20:04 | 51.40893 | 12.24538 | 469 ft | 1 kts | 265° |
| 2026-05-07 20:04 | 51.40892 | 12.24525 | 469 ft | 1 kts | 265° |
| 2026-05-07 20:04 | 51.40892 | 12.24516 | 470 ft | 0 kts | 266° |